Terminal Aerodrome Forecast
Issued by NWS

Home | Current Version | Previous Version | Text Only | Print | Product List | Glossary On
Versions: 1 2 3 4 5 6 7 8 9 10 11 12 13 14 15 16 17
000
FTUS43 KICT 011529 AAA
TAFCNU
TAF AMD
KCNU 011529Z 0115/0212 10005KT P6SM SCT020 BKN035
      TEMPO 0115/0118 BKN018
     FM011900 10006KT P6SM BKN035
     FM012000 10005KT P6SM BKN100
     FM020100 09005KT P6SM FEW250=

USA.gov is the U.S. government's official web portal to all federal, state and local government web resources and services.